Pagrindinis puslapis
METAR-TAF:

METAR-TAF

Oro uostai :

Tongatapu, Tonga

platuma: 21-14S, ilguma: 175-09W, Aukštis: 38 m

Dabartinis oras

Ataskaita buvo paskelbta 25 minutes, ne 05:00 UTC
Vėjas 4 kt iš Pietryčių
Temperatūra 23°C
Drėgmė 89%
Slėgis 1016 hPa
Matomumas 10 km arba daugiau
Mažai debesys ne aukštis 500 ft
Mažai debesys ne aukštis 1600 ft, aukštai iškilę kamuoliniai debesys.

METAR: NFTF 290500Z 14004KT 9999 FEW005 FEW016TCU 23/21 Q1016

Laikas: 18:25 (05:25 UTC)

Prognozė

Ataskaita buvo paskelbta 6 valandos ir 17 minutes, ne 23:08 UTC
Prognozė galioja nuo 29 metu 00 UTC su 29 metu 24 UTC
Vėjas 8 kt iš Pietų/Pietryčių
Matomumas 10 km arba daugiau
Išsisklaidę debesys ne aukštis 1800 ft

TAF: NFTF 282308Z 2900/2924 15008KT 9999 SCT018

Orai ataskaitas ir orų prognozės (METAR, TAF).

turimą stotys yra geltonos ir raudonos taškus žemėlapyje.

Perkelti pele per norėdami pamatyti stoties vardą.

Tada spustelėkite, norėdami matyti oro stebėjimo ir prognozės.

Norėdami pakeisti žemėlapį: spustelėkite ant žalios mygtukų su juodo kryžiaus žemyn,; žalią mygtuką su brūkšneliu, jei norite nutolinti; arba žalių rodyklių gretimoms žemėlapius.


METAR-TAF: